createdAt,value
2019-06-20T00:02:51.798Z,80.80
2019-06-20T00:07:53.768Z,78.82
2019-06-20T00:13:00.376Z,79.39
2019-06-20T00:17:59.320Z,79.76
2019-06-20T00:23:01.227Z,82.24
2019-06-20T00:28:03.429Z,81.71
2019-06-20T00:33:05.360Z,80.82
2019-06-20T00:38:07.211Z,80.15
2019-06-20T00:43:17.426Z,80.84
2019-06-20T00:48:13.017Z,79.16
2019-06-20T00:53:14.841Z,79.35
2019-06-20T00:58:16.702Z,80.42
2019-06-20T01:03:18.518Z,78.30
2019-06-20T01:08:20.373Z,80.14
2019-06-20T01:13:33.134Z,79.84
2019-06-20T01:18:25.969Z,80.13
2019-06-20T01:23:28.002Z,80.41
2019-06-20T01:28:30.357Z,78.17
2019-06-20T01:33:33.046Z,79.48
2019-06-20T01:38:35.177Z,80.50
2019-06-20T01:43:50.220Z,80.64
2019-06-20T01:48:41.414Z,80.48
2019-06-20T01:53:43.464Z,79.83
2019-06-20T01:58:46.642Z,80.44
2019-06-20T02:03:49.046Z,79.63
2019-06-20T02:08:51.343Z,80.38
2019-06-20T02:14:06.426Z,80.10
2019-06-20T02:18:56.946Z,79.57
2019-06-20T02:23:58.766Z,79.96
2019-06-20T02:29:00.596Z,79.81
2019-06-20T02:34:04.495Z,80.04
2019-06-20T02:39:08.297Z,80.60
2019-06-20T02:44:28.577Z,81.19
2019-06-20T02:49:13.962Z,80.62
2019-06-20T02:54:15.798Z,80.26
2019-06-20T02:59:17.671Z,80.43
2019-06-20T03:04:19.571Z,80.96
2019-06-20T03:09:21.419Z,81.34
2019-06-20T03:14:23.209Z,81.20
2019-06-20T03:19:25.039Z,81.38
2019-06-20T03:24:26.879Z,81.20
2019-06-20T03:29:28.719Z,81.74
2019-06-20T03:34:30.665Z,79.89
2019-06-20T03:39:32.823Z,79.77
2019-06-20T03:44:34.808Z,80.20
2019-06-20T03:49:36.717Z,79.49
2019-06-20T03:54:38.566Z,80.63
2019-06-20T03:59:40.388Z,81.11
2019-06-20T04:04:42.245Z,82.20
2019-06-20T04:09:44.049Z,82.44
2019-06-20T04:14:49.062Z,83.99
2019-06-20T04:19:50.776Z,83.45
2019-06-20T04:24:52.598Z,81.88
2019-06-20T04:29:54.477Z,81.17
2019-06-20T04:34:56.393Z,82.41
2019-06-20T04:39:58.251Z,82.36
2019-06-20T04:45:01.925Z,81.87
2019-06-20T04:50:04.789Z,80.87
2019-06-20T04:55:07.196Z,82.65
2019-06-20T05:00:09.151Z,83.72
2019-06-20T05:05:11.207Z,81.69
2019-06-20T05:10:13.651Z,80.72
2019-06-20T05:15:15.657Z,83.01
2019-06-20T05:20:17.542Z,82.13
2019-06-20T05:25:20.527Z,82.13
2019-06-20T05:30:22.480Z,81.54
2019-06-20T05:35:24.505Z,79.94
2019-06-20T05:40:26.492Z,79.86
2019-06-20T05:45:28.654Z,81.60
2019-06-20T05:50:31.010Z,79.48
2019-06-20T05:55:33.190Z,80.63
2019-06-20T06:00:35.079Z,81.91
2019-06-20T06:05:37.204Z,79.90
2019-06-20T06:10:39.249Z,81.81
2019-06-20T06:15:41.050Z,79.33
2019-06-20T06:20:44.974Z,79.38
2019-06-20T06:25:46.656Z,78.50
2019-06-20T06:30:48.526Z,76.63
2019-06-20T06:35:50.407Z,76.33
2019-06-20T06:40:52.409Z,76.33
2019-06-20T06:45:54.279Z,74.67
2019-06-20T06:50:56.200Z,74.88
2019-06-20T06:55:58.029Z,70.65
2019-06-20T07:00:59.943Z,66.92
2019-06-20T07:06:01.885Z,68.82
2019-06-20T07:11:03.872Z,66.59
2019-06-20T07:16:06.788Z,65.94
2019-06-20T07:21:08.766Z,64.12
2019-06-20T07:26:10.587Z,64.83
2019-06-20T07:31:12.468Z,64.11
2019-06-20T07:36:14.286Z,65.13
2019-06-20T07:41:16.142Z,63.03
2019-06-20T07:46:18.513Z,64.58
2019-06-20T07:51:20.581Z,57.10
2019-06-20T07:56:22.423Z,60.42
2019-06-20T08:01:25.434Z,62.88
2019-06-20T08:06:27.322Z,58.37
2019-06-20T08:11:29.262Z,58.94
2019-06-20T08:16:31.122Z,56.21
2019-06-20T08:21:32.998Z,54.04
2019-06-20T08:26:34.919Z,54.14
2019-06-20T08:31:38.021Z,45.10
2019-06-20T08:36:39.631Z,49.80
2019-06-20T08:41:41.511Z,52.38
2019-06-20T08:46:43.387Z,46.88
2019-06-20T08:51:45.230Z,49.58
2019-06-20T08:56:46.916Z,49.36
2019-06-20T09:01:48.776Z,46.60
2019-06-20T09:06:50.475Z,43.29
2019-06-20T09:11:54.079Z,40.63
2019-06-20T09:16:56.499Z,48.24
2019-06-20T09:21:58.423Z,37.85
2019-06-20T09:27:00.060Z,47.14
2019-06-20T09:32:01.911Z,38.10
2019-06-20T09:37:04.782Z,38.10
2019-06-20T09:42:06.747Z,41.75
2019-06-20T09:47:08.378Z,43.71
2019-06-20T09:52:10.266Z,41.38
2019-06-20T09:57:11.958Z,45.88
2019-06-20T10:02:13.928Z,43.49
2019-06-20T10:07:15.745Z,45.67
2019-06-20T10:12:17.704Z,50.84
2019-06-20T10:17:20.964Z,48.53
2019-06-20T10:22:22.865Z,49.44
2019-06-20T10:27:24.812Z,48.84
2019-06-20T10:32:26.756Z,48.09
2019-06-20T10:37:28.549Z,46.88
2019-06-20T10:42:31.416Z,49.91
2019-06-20T10:47:36.053Z,53.07
2019-06-20T10:52:37.433Z,53.53
2019-06-20T10:57:41.269Z,55.36
2019-06-20T11:02:43.911Z,57.59
2019-06-20T11:07:48.460Z,55.26
2019-06-20T11:12:55.983Z,54.07
2019-06-20T11:17:57.152Z,50.28
2019-06-20T11:23:00.301Z,45.48
2019-06-20T11:28:02.214Z,49.25
2019-06-20T11:33:04.177Z,45.41
2019-06-20T11:38:06.056Z,45.70
2019-06-20T11:43:09.153Z,46.72
2019-06-20T11:48:11.174Z,47.37
2019-06-20T11:53:13.225Z,47.77
2019-06-20T11:58:15.105Z,49.87
2019-06-20T12:03:17.367Z,49.53
2019-06-20T12:08:19.441Z,52.36
2019-06-20T12:13:21.347Z,52.82
2019-06-20T12:18:24.707Z,53.03
2019-06-20T12:23:26.693Z,52.18
2019-06-20T12:28:28.576Z,55.15
2019-06-20T12:33:32.258Z,57.28
2019-06-20T12:38:34.225Z,59.88
2019-06-20T12:43:37.349Z,58.85
2019-06-20T12:48:41.267Z,64.41
2019-06-20T12:53:44.161Z,64.88
2019-06-20T18:44:23.186Z,69.78
2019-06-20T18:49:25.077Z,68.81
2019-06-20T18:54:27.178Z,68.53
2019-06-20T18:59:32.559Z,67.38
2019-06-20T19:04:46.505Z,68.57
2019-06-20T19:09:37.132Z,69.20
2019-06-20T19:14:39.196Z,69.66
2019-06-20T19:19:41.490Z,69.56
2019-06-20T19:24:43.327Z,69.82
2019-06-20T19:29:49.689Z,70.16
2019-06-20T19:35:01.315Z,69.55
2019-06-20T19:39:56.118Z,69.59
2019-06-20T19:44:58.539Z,69.76
2019-06-20T19:50:00.541Z,70.67
2019-06-20T19:55:04.057Z,71.69
2019-06-20T20:00:08.770Z,72.61
2019-06-20T20:05:19.204Z,72.55
2019-06-20T20:10:18.829Z,72.52
2019-06-20T20:15:20.919Z,71.53
2019-06-20T20:20:22.862Z,70.28
2019-06-20T20:25:24.687Z,70.98
2019-06-20T20:30:26.835Z,71.29
2019-06-20T20:35:35.625Z,70.62
2019-06-20T20:40:32.573Z,72.64
2019-06-20T20:45:34.786Z,72.64
2019-06-20T20:50:36.731Z,73.41
2019-06-20T20:55:38.705Z,72.70
2019-06-20T21:01:03.818Z,73.23
2019-06-20T21:06:05.959Z,72.74
2019-06-20T21:11:09.113Z,72.09
2019-06-20T21:16:11.152Z,73.58
2019-06-20T21:21:13.033Z,74.84
2019-06-20T21:26:14.991Z,75.17
2019-06-20T21:31:16.935Z,74.37
2019-06-20T21:36:18.761Z,74.99
2019-06-20T21:41:20.670Z,74.43
2019-06-20T21:46:22.497Z,73.83
2019-06-20T21:51:24.345Z,73.79
2019-06-20T21:56:26.280Z,73.67
2019-06-20T22:01:28.429Z,77.00
2019-06-20T22:06:30.444Z,76.31
2019-06-20T22:11:32.343Z,76.21
2019-06-20T22:16:34.222Z,74.48
2019-06-20T22:21:36.068Z,74.63
2019-06-20T22:26:37.919Z,74.75
2019-06-20T22:31:39.738Z,74.00
2019-06-20T22:36:41.525Z,74.53
2019-06-20T22:41:43.356Z,73.12
2019-06-20T22:46:45.191Z,72.35
2019-06-20T22:51:47.027Z,73.62
2019-06-20T22:56:48.872Z,72.80
2019-06-20T23:01:50.795Z,73.38
2019-06-20T23:06:56.685Z,73.74
2019-06-20T23:11:56.348Z,73.79
2019-06-20T23:16:58.168Z,72.31
2019-06-20T23:21:59.977Z,72.86
2019-06-20T23:27:01.904Z,73.57
2019-06-20T23:32:03.878Z,72.92
2019-06-20T23:37:12.615Z,73.81
2019-06-20T23:42:11.554Z,72.73
2019-06-20T23:47:13.468Z,73.04
2019-06-20T23:52:25.842Z,75.40
2019-06-20T23:57:27.704Z,76.55
